Time;durP1;ratioP1;P1;durP2;ratioP2;P2;SDS_P1;SDS_P2;PMS_P1;PMS_P2;Temp;Humidity;BMP_temperature;BMP_pressure;BME280_temperature;BME280_humidity;BME280_pressure;Samples;Min_cycle;Max_cycle;Signal;HPM_P1;HPM_P2
2022/02/09 00:04:03;;;;;;;5.73;3.13;;;7.40;99.90;;;;;;6229693;23;20366;-83
2022/02/09 00:09:13;;;;;;;4.50;3.20;;;7.30;99.90;;;;;;6214942;23;20750;-84
2022/02/09 00:11:45;;;;;;;4.13;3.43;;;7.30;99.90;;;;;;6188045;23;20811;-84
2022/02/09 00:19:59;;;;;;;5.80;4.00;;;7.40;99.90;;;;;;6216211;23;20416;-84
2022/02/09 01:56:59;;;;;;;7.73;5.87;;;7.30;99.90;;;;;;6220396;23;20372;-84
2022/02/09 01:59:25;;;;;;;8.70;6.23;;;7.30;99.90;;;;;;6188938;23;20390;-84
2022/02/09 02:01:54;;;;;;;9.53;6.27;;;7.30;99.90;;;;;;6188611;23;20386;-83
2022/02/09 02:04:24;;;;;;;7.03;5.47;;;7.20;99.90;;;;;;6189022;23;20386;-84
2022/02/09 02:06:51;;;;;;;8.50;5.70;;;7.30;99.90;;;;;;6194753;23;20714;-84
2022/02/09 02:09:18;;;;;;;11.00;5.40;;;7.30;99.90;;;;;;6192610;23;20716;-84
2022/02/09 02:11:49;;;;;;;7.10;5.30;;;7.30;99.90;;;;;;6188460;23;20424;-84
2022/02/09 02:16:48;;;;;;;9.17;4.90;;;7.30;99.90;;;;;;6219225;23;20386;-84
2022/02/09 02:22:27;;;;;;;6.10;5.27;;;7.20;99.90;;;;;;6233269;23;20844;-84
2022/02/09 02:24:59;;;;;;;7.73;4.90;;;7.20;99.90;;;;;;6217864;23;21245;-84
2022/02/09 02:33:16;;;;;;;6.80;4.57;;;7.20;99.90;;;;;;6177350;23;20763;-83
2022/02/09 02:59:35;;;;;;;8.83;4.27;;;7.10;99.90;;;;;;6219237;23;20934;-84
2022/02/09 03:10:49;;;;;;;5.63;4.50;;;7.00;99.90;;;;;;6220040;23;20421;-85
2022/02/09 03:13:19;;;;;;;9.83;4.97;;;7.00;99.90;;;;;;6218715;23;20408;-84
2022/02/09 03:57:45;;;;;;;7.73;3.67;;;6.80;99.90;;;;;;6222711;23;20460;-83
2022/02/09 04:00:13;;;;;;;9.13;3.80;;;6.90;99.90;;;;;;6193311;23;20804;-83
2022/02/09 04:02:53;;;;;;;5.60;4.30;;;6.80;99.90;;;;;;6188708;23;20396;-84
2022/02/09 04:05:19;;;;;;;8.07;4.37;;;6.80;99.90;;;;;;6190754;23;20389;-84
2022/02/09 04:07:47;;;;;;;5.23;3.73;;;6.80;99.90;;;;;;6191780;23;20436;-84
2022/02/09 04:10:23;;;;;;;8.07;4.00;;;6.80;99.90;;;;;;6194124;23;20875;-83
2022/02/09 04:13:18;;;;;;;7.17;4.17;;;6.90;99.90;;;;;;6193599;23;20417;-83
2022/02/09 04:38:05;;;;;;;5.20;3.70;;;6.80;99.90;;;;;;6218445;23;20409;-83
2022/02/09 04:51:22;;;;;;;5.60;4.23;;;6.80;99.90;;;;;;6218658;23;20365;-84
2022/02/09 04:57:51;;;;;;;5.97;4.50;;;6.60;99.90;;;;;;6230100;23;20397;-84
2022/02/09 04:59:53;;;;;;;5.30;3.77;;;6.60;99.90;;;;;;6198750;23;20379;-84
2022/02/09 05:21:47;;;;;;;4.67;4.00;;;6.50;99.90;;;;;;6216806;23;20369;-84
2022/02/09 05:24:23;;;;;;;9.33;6.87;;;6.50;99.90;;;;;;6218713;23;20401;-84
2022/02/09 05:29:25;;;;;;;10.07;5.40;;;6.50;99.90;;;;;;6228760;23;20430;-84
2022/02/09 05:31:51;;;;;;;5.83;4.23;;;6.40;99.90;;;;;;6193096;23;20413;-83
2022/02/09 05:34:19;;;;;;;6.17;3.93;;;6.40;99.90;;;;;;6190118;23;20393;-83
2022/02/09 05:36:45;;;;;;;5.80;4.00;;;6.30;99.90;;;;;;6190424;23;20166;-84
2022/02/09 05:39:14;;;;;;;6.67;4.63;;;6.40;99.90;;;;;;6190134;23;20885;-85
2022/02/09 05:41:47;;;;;;;7.10;4.40;;;6.30;99.90;;;;;;6192060;23;20474;-84
2022/02/09 05:44:15;;;;;;;6.23;4.93;;;6.30;99.90;;;;;;6192398;23;20744;-84
2022/02/09 05:52:13;;;;;;;7.30;4.50;;;6.10;99.90;;;;;;6227243;23;20380;-84
2022/02/09 06:00:11;;;;;;;8.40;5.37;;;6.00;99.90;;;;;;6211338;23;20378;-87
2022/02/09 06:03:18;;;;;;;7.63;4.93;;;5.90;99.90;;;;;;6186816;23;20394;-87
2022/02/09 06:05:49;;;;;;;14.67;7.40;;;5.80;99.90;;;;;;6160161;23;20392;-88
2022/02/09 06:08:17;;;;;;;15.67;8.83;;;5.70;99.90;;;;;;6188423;23;21103;-87
2022/02/09 06:10:50;;;;;;;9.20;6.83;;;5.60;99.90;;;;;;6198179;23;20417;-86
2022/02/09 06:13:49;;;;;;;6.90;4.77;;;5.50;99.90;;;;;;6221986;23;20405;-85
2022/02/09 06:21:49;;;;;;;6.93;4.43;;;5.20;99.90;;;;;;6224664;23;20603;-85
2022/02/09 06:24:17;;;;;;;6.00;3.93;;;5.10;99.90;;;;;;6225018;23;20549;-86
2022/02/09 06:26:53;;;;;;;4.50;3.77;;;5.10;99.90;;;;;;6224702;23;20411;-87
2022/02/09 06:29:19;;;;;;;7.63;4.13;;;5.00;99.90;;;;;;6196078;23;20821;-85
2022/02/09 06:31:47;;;;;;;4.70;3.97;;;5.00;99.90;;;;;;6188652;23;20584;-85
2022/02/09 06:34:15;;;;;;;8.40;3.93;;;5.00;99.90;;;;;;6195322;23;20404;-85
2022/02/09 06:36:48;;;;;;;6.40;3.97;;;4.80;99.90;;;;;;6188194;23;20487;-85
2022/02/09 06:39:20;;;;;;;8.37;5.33;;;4.70;99.90;;;;;;6192521;23;20392;-86
2022/02/09 06:41:56;;;;;;;8.60;4.70;;;4.70;99.90;;;;;;6224973;23;20376;-86
2022/02/09 06:44:25;;;;;;;6.53;4.20;;;4.60;99.90;;;;;;6198521;23;20692;-86
2022/02/09 06:46:53;;;;;;;7.83;4.80;;;4.50;99.90;;;;;;6197950;23;20901;-85
2022/02/09 06:49:21;;;;;;;11.27;4.57;;;4.50;99.90;;;;;;6198486;23;20425;-84
2022/02/09 06:51:47;;;;;;;10.23;5.33;;;4.40;99.90;;;;;;6196960;23;20715;-85
2022/02/09 06:54:43;;;;;;;11.90;6.07;;;4.30;99.90;;;;;;6196989;23;20491;-85
2022/02/09 06:57:26;;;;;;;12.37;6.47;;;4.20;99.90;;;;;;6188728;23;20380;-84
2022/02/09 06:59:52;;;;;;;8.00;5.47;;;4.30;99.90;;;;;;6222855;23;20974;-84
2022/02/09 07:02:18;;;;;;;7.20;4.60;;;4.20;99.90;;;;;;6188176;23;20678;-85
2022/02/09 07:05:04;;;;;;;5.80;4.00;;;4.10;99.90;;;;;;6189473;23;20148;-88
2022/02/09 07:07:37;;;;;;;8.13;5.20;;;4.10;99.90;;;;;;6190567;23;20702;-87
2022/02/09 07:10:04;;;;;;;12.13;5.03;;;4.00;99.90;;;;;;6216248;23;20480;-87
2022/02/09 07:12:59;;;;;;;6.37;5.50;;;4.00;99.90;;;;;;6188798;23;20797;-87
2022/02/09 07:18:25;;;;;;;10.40;5.20;;;4.00;99.90;;;;;;6202214;23;20958;-85
2022/02/09 07:26:41;;;;;;;10.47;5.20;;;4.00;99.90;;;;;;6206889;23;20156;-86
2022/02/09 07:29:08;;;;;;;8.50;4.70;;;4.10;99.90;;;;;;6227194;23;20384;-84
2022/02/09 07:31:33;;;;;;;5.60;4.80;;;4.00;99.90;;;;;;6199516;23;20396;-86
2022/02/09 07:33:59;;;;;;;156.43;139.30;;;4.10;99.90;;;;;;6230515;23;20423;-86
2022/02/09 07:36:31;;;;;;;34.00;23.93;;;4.10;99.90;;;;;;6204278;23;20245;-86
2022/02/09 07:39:00;;;;;;;8.67;5.50;;;4.20;99.90;;;;;;6228476;23;20398;-86
2022/02/09 07:41:25;;;;;;;6.13;5.30;;;4.30;99.90;;;;;;6199688;23;20712;-86
2022/02/09 07:44:06;;;;;;;113.13;100.83;;;4.30;99.90;;;;;;6226211;23;20374;-85
2022/02/09 07:54:06;;;;;;;9.53;6.77;;;4.40;99.90;;;;;;6234062;23;20372;-85
2022/02/09 07:56:41;;;;;;;7.40;5.60;;;4.50;99.90;;;;;;6224823;23;20479;-85
2022/02/09 07:59:09;;;;;;;6.33;4.97;;;4.50;99.90;;;;;;6225433;23;20385;-86
2022/02/09 08:01:35;;;;;;;9.20;5.40;;;4.60;99.90;;;;;;6227749;23;20408;-86
2022/02/09 08:04:09;;;;;;;5.00;4.40;;;4.60;99.90;;;;;;6227086;23;20386;-83
2022/02/09 08:06:37;;;;;;;5.60;4.13;;;4.70;99.90;;;;;;6227793;23;20364;-84
2022/02/09 08:09:09;;;;;;;6.17;4.90;;;4.70;99.90;;;;;;6227729;23;20399;-85
2022/02/09 08:33:16;;;;;;;7.70;4.57;;;5.70;99.90;;;;;;6237048;23;20383;-85
2022/02/09 08:35:42;;;;;;;6.80;5.00;;;5.80;99.90;;;;;;6195167;23;20472;-85
2022/02/09 08:38:11;;;;;;;6.70;5.00;;;6.00;99.90;;;;;;6220623;23;20385;-84
2022/02/09 08:40:37;;;;;;;4.90;4.17;;;6.20;99.90;;;;;;6190072;23;20398;-86
2022/02/09 08:43:03;;;;;;;4.60;4.00;;;6.20;99.90;;;;;;6196673;23;20401;-85
2022/02/09 08:45:29;;;;;;;7.17;4.70;;;6.30;99.90;;;;;;6196858;23;20160;-85
2022/02/09 08:47:56;;;;;;;7.90;4.97;;;6.50;99.90;;;;;;6193283;23;20527;-84
2022/02/09 08:50:22;;;;;;;5.10;4.20;;;6.70;99.90;;;;;;6194380;23;20503;-85
2022/02/09 08:52:49;;;;;;;9.60;4.50;;;7.00;99.90;;;;;;6195790;23;20394;-85
2022/02/09 08:55:15;;;;;;;8.70;4.30;;;7.20;99.90;;;;;;6202536;23;20390;-85
2022/02/09 08:57:41;;;;;;;6.33;4.87;;;7.20;99.90;;;;;;6189582;23;20484;-86
2022/02/09 09:00:19;;;;;;;6.10;4.83;;;7.30;99.90;;;;;;6193331;23;21115;-85
2022/02/09 09:02:50;;;;;;;9.30;4.60;;;7.60;99.90;;;;;;6197911;23;20742;-85
2022/02/09 09:05:22;;;;;;;6.10;4.20;;;7.80;99.90;;;;;;6197745;23;20437;-86
2022/02/09 09:07:54;;;;;;;4.97;3.80;;;7.90;99.90;;;;;;6196931;23;20567;-85
2022/02/09 09:10:44;;;;;;;5.57;3.90;;;8.10;99.90;;;;;;6224006;23;20439;-84
2022/02/09 09:58:03;;;;;;;6.57;3.60;;;8.80;99.90;;;;;;6190217;23;20785;-84
2022/02/09 10:30:50;;;;;;;5.13;3.40;;;10.50;98.80;;;;;;6230608;23;20424;-84
2022/02/09 10:33:57;;;;;;;3.77;2.87;;;11.40;96.90;;;;;;6227422;23;20393;-84
2022/02/09 10:36:23;;;;;;;4.40;2.70;;;11.50;96.50;;;;;;6200416;23;20383;-84
2022/02/09 10:39:09;;;;;;;2.70;2.50;;;11.70;96.70;;;;;;6197612;23;20391;-84
2022/02/09 10:41:43;;;;;;;2.70;2.30;;;12.20;95.90;;;;;;6199740;23;20786;-84
2022/02/09 10:44:12;;;;;;;2.70;2.13;;;12.00;95.10;;;;;;6201577;23;20502;-84
2022/02/09 10:46:53;;;;;;;2.40;2.20;;;12.00;95.20;;;;;;6200028;23;20394;-83
2022/02/09 10:49:21;;;;;;;3.53;2.57;;;12.10;95.20;;;;;;6199932;23;20465;-84
2022/02/09 10:52:02;;;;;;;4.50;2.30;;;12.40;95.00;;;;;;6201420;23;20402;-82
2022/02/09 10:54:37;;;;;;;4.47;2.60;;;12.40;95.90;;;;;;6200166;23;20469;-82
2022/02/09 10:57:07;;;;;;;4.70;2.50;;;12.90;94.70;;;;;;6200137;23;21235;-83
2022/02/09 10:59:37;;;;;;;3.20;2.50;;;13.20;93.90;;;;;;6199690;23;20437;-83
2022/02/09 11:02:06;;;;;;;4.90;2.37;;;13.30;93.70;;;;;;6200249;23;20396;-83
2022/02/09 11:04:33;;;;;;;3.50;2.40;;;13.10;93.60;;;;;;6199658;23;20393;-83
2022/02/09 11:07:03;;;;;;;3.37;2.70;;;12.90;93.70;;;;;;6199090;23;20436;-84
2022/02/09 11:09:29;;;;;;;3.83;2.37;;;13.20;93.80;;;;;;6201530;23;20402;-84
2022/02/09 11:11:55;;;;;;;4.70;2.30;;;13.30;93.50;;;;;;6199182;23;20597;-84
2022/02/09 11:14:24;;;;;;;4.40;2.63;;;13.30;93.30;;;;;;6200049;23;20456;-84
2022/02/09 11:16:57;;;;;;;2.40;2.20;;;13.30;92.90;;;;;;6201768;23;20401;-82
2022/02/09 11:19:36;;;;;;;3.53;2.27;;;13.30;92.90;;;;;;6195108;23;20487;-82
2022/02/09 11:22:23;;;;;;;2.87;2.10;;;13.20;92.80;;;;;;6199590;23;20473;-83
2022/02/09 11:25:07;;;;;;;2.97;2.13;;;13.30;93.30;;;;;;6200468;23;20431;-83
2022/02/09 11:27:36;;;;;;;2.97;2.10;;;13.40;93.00;;;;;;6200685;23;20449;-83
2022/02/09 11:30:22;;;;;;;3.20;2.63;;;13.70;93.10;;;;;;6199385;23;20691;-84
2022/02/09 11:33:18;;;;;;;3.27;2.20;;;13.90;94.00;;;;;;6200104;23;20370;-84
2022/02/09 11:36:06;;;;;;;3.10;2.47;;;13.90;92.60;;;;;;6200659;23;20394;-86
2022/02/09 11:38:46;;;;;;;2.50;2.30;;;14.30;92.60;;;;;;6201759;23;20469;-85
2022/02/09 11:41:16;;;;;;;4.27;2.30;;;14.50;92.20;;;;;;6200777;23;20405;-85
2022/02/09 11:44:21;;;;;;;3.70;1.97;;;14.70;91.50;;;;;;6206506;23;20753;-84
2022/02/09 12:00:16;;;;;;;2.03;1.57;;;14.70;92.30;;;;;;6238251;23;20397;-84
2022/02/09 12:11:27;;;;;;;3.73;2.00;;;15.00;91.30;;;;;;6238079;23;20405;-85
2022/02/09 12:16:42;;;;;;;1.93;1.70;;;15.20;91.30;;;;;;6237560;23;20764;-85
2022/02/09 12:19:14;;;;;;;4.40;2.10;;;15.30;90.80;;;;;;6198380;23;20402;-84
2022/02/09 12:21:50;;;;;;;3.20;1.90;;;15.40;91.40;;;;;;6190616;23;20373;-84
2022/02/09 12:24:27;;;;;;;1.83;1.53;;;15.70;90.40;;;;;;6199991;23;21028;-85
2022/02/09 12:27:00;;;;;;;2.27;1.90;;;15.80;90.40;;;;;;6200267;23;20480;-84
2022/02/09 12:29:38;;;;;;;3.90;2.20;;;16.00;89.70;;;;;;6199936;23;20420;-84
2022/02/09 12:32:16;;;;;;;2.67;2.17;;;16.20;90.00;;;;;;6203502;23;20397;-84
2022/02/09 12:34:53;;;;;;;2.17;1.70;;;16.50;89.10;;;;;;6202110;23;20757;-84
2022/02/09 12:37:19;;;;;;;3.00;2.00;;;16.80;87.60;;;;;;6198812;23;20738;-85
2022/02/09 12:39:49;;;;;;;2.50;1.90;;;16.60;87.10;;;;;;6198451;23;20394;-84
2022/02/09 12:42:15;;;;;;;2.73;1.60;;;16.40;87.90;;;;;;6199057;23;20229;-85
2022/02/09 12:44:43;;;;;;;2.33;1.63;;;16.40;87.90;;;;;;6200784;23;20473;-84
2022/02/09 12:47:09;;;;;;;1.57;1.43;;;16.60;86.90;;;;;;6200204;23;20249;-84
2022/02/09 12:49:35;;;;;;;1.27;1.17;;;16.50;87.20;;;;;;6199085;23;20390;-84
2022/02/09 12:52:01;;;;;;;3.27;1.77;;;16.50;87.20;;;;;;6199737;23;20162;-83
2022/02/09 12:54:26;;;;;;;1.60;1.50;;;16.70;87.60;;;;;;6199690;23;20158;-84
2022/02/09 12:56:55;;;;;;;1.33;1.10;;;16.40;87.20;;;;;;6199245;23;20166;-85
2022/02/09 12:59:24;;;;;;;1.30;1.20;;;16.60;87.20;;;;;;6198249;23;20175;-84
2022/02/09 13:01:58;;;;;;;2.60;1.40;;;16.60;86.20;;;;;;6198667;23;20393;-84
2022/02/09 13:04:38;;;;;;;2.80;1.80;;;16.80;87.20;;;;;;6196739;23;20401;-85
2022/02/09 13:07:15;;;;;;;1.70;1.00;;;16.70;87.60;;;;;;6199703;23;20448;-82
2022/02/09 13:09:47;;;;;;;2.80;1.13;;;17.00;87.30;;;;;;6199778;23;20393;-83
2022/02/09 13:12:12;;;;;;;1.50;1.27;;;17.30;85.60;;;;;;6199726;23;20390;-83
2022/02/09 13:14:44;;;;;;;1.37;1.20;;;17.60;84.70;;;;;;6198827;23;20868;-83
2022/02/09 13:17:51;;;;;;;1.40;1.20;;;17.70;86.40;;;;;;6200389;23;20183;-83
2022/02/09 13:26:12;;;;;;;3.03;1.20;;;20.10;78.20;;;;;;6238057;23;20370;-83
2022/02/09 14:16:51;;;;;;;1.77;0.77;;;20.20;62.40;;;;;;6226558;23;20397;-84
2022/02/09 14:23:45;;;;;;;1.00;0.77;;;19.40;64.00;;;;;;6206652;23;20404;-82
2022/02/09 14:57:15;;;;;;;2.47;1.43;;;14.70;80.80;;;;;;6221378;23;20417;-83
2022/02/09 15:02:34;;;;;;;2.23;1.33;;;14.90;82.10;;;;;;6221759;23;20894;-84
2022/02/09 15:10:06;;;;;;;3.47;1.30;;;15.90;78.40;;;;;;6219982;23;20387;-84
2022/02/09 15:15:13;;;;;;;2.33;1.10;;;18.60;73.50;;;;;;6234535;23;20441;-84
2022/02/09 15:23:07;;;;;;;2.50;1.20;;;19.20;66.20;;;;;;6238017;23;20370;-84
2022/02/09 15:25:34;;;;;;;4.30;1.03;;;17.40;70.80;;;;;;6201132;23;20386;-84
2022/02/09 15:28:03;;;;;;;2.97;1.23;;;16.00;73.60;;;;;;6200649;23;20914;-84
2022/02/09 15:30:35;;;;;;;2.73;1.40;;;15.30;76.90;;;;;;6200711;23;20382;-84
2022/02/09 15:33:03;;;;;;;1.10;1.00;;;14.90;79.80;;;;;;6199285;23;20406;-85
2022/02/09 15:35:35;;;;;;;2.57;1.40;;;14.60;80.90;;;;;;6195482;23;20729;-84
2022/02/09 15:56:23;;;;;;;2.53;1.97;;;13.90;85.50;;;;;;6219461;23;20433;-84
2022/02/09 15:59:16;;;;;;;1.90;1.70;;;13.80;85.90;;;;;;6193463;23;20565;-85
2022/02/09 16:10:05;;;;;;;3.53;2.10;;;13.50;87.10;;;;;;6229376;23;20524;-86
2022/02/09 16:23:30;;;;;;;5.00;2.13;;;13.10;90.50;;;;;;6228233;23;20489;-84
2022/02/09 16:45:05;;;;;;;2.53;1.70;;;11.20;98.70;;;;;;6218313;23;20369;-84
2022/02/09 16:50:17;;;;;;;1.40;1.30;;;10.80;99.70;;;;;;6218337;23;20957;-83
2022/02/09 17:19:58;;;;;;;4.07;2.30;;;9.50;99.90;;;;;;6217839;23;21233;-87
2022/02/09 17:22:25;;;;;;;6.83;2.67;;;9.40;99.90;;;;;;6177975;23;20393;-88
2022/02/09 17:24:52;;;;;;;3.27;2.33;;;9.20;99.90;;;;;;6191113;23;20397;-85
2022/02/09 17:27:20;;;;;;;3.13;1.83;;;9.10;99.90;;;;;;6193625;23;20404;-86
2022/02/09 17:35:14;;;;;;;4.27;2.97;;;8.80;99.90;;;;;;6219513;23;20420;-86
2022/02/09 17:37:54;;;;;;;3.83;2.57;;;8.70;99.90;;;;;;6195344;23;20666;-86
2022/02/09 17:57:41;;;;;;;4.10;2.63;;;8.50;99.90;;;;;;6232495;23;20445;-84
2022/02/09 18:00:16;;;;;;;4.90;3.13;;;8.40;99.90;;;;;;6196660;23;20378;-84
2022/02/09 18:02:46;;;;;;;3.50;2.80;;;8.30;99.90;;;;;;6194358;23;20741;-85
2022/02/09 18:05:21;;;;;;;3.93;3.03;;;8.20;99.90;;;;;;6196139;23;20401;-85
2022/02/09 18:44:09;;;;;;;11.50;9.43;;;7.60;99.90;;;;;;6219323;23;20435;-86
2022/02/09 19:02:58;;;;;;;10.10;8.30;;;7.50;99.90;;;;;;6224816;23;20436;-85
2022/02/09 19:05:34;;;;;;;10.83;9.07;;;7.50;99.90;;;;;;6195134;23;20394;-86
2022/02/09 19:08:34;;;;;;;17.50;11.27;;;7.40;99.90;;;;;;6192349;23;20517;-87
2022/02/09 19:17:02;;;;;;;15.83;10.67;;;7.30;99.90;;;;;;6175498;23;20382;-83
2022/02/09 19:20:27;;;;;;;10.67;8.60;;;7.30;99.90;;;;;;6200107;23;20398;-84
2022/02/09 19:30:34;;;;;;;15.87;14.17;;;7.20;99.90;;;;;;6230033;23;20414;-84
2022/02/09 19:54:25;;;;;;;8.83;7.50;;;7.30;99.90;;;;;;6237735;23;20465;-84
2022/02/09 19:56:36;;;;;;;8.10;7.30;;;7.30;99.90;;;;;;6220441;23;20397;-84
2022/02/09 19:59:08;;;;;;;15.90;8.90;;;7.20;99.90;;;;;;6201239;23;20491;-86
2022/02/09 20:01:36;;;;;;;15.23;8.57;;;7.20;99.90;;;;;;6201063;23;20465;-86
2022/02/09 20:04:06;;;;;;;8.60;7.60;;;7.10;99.90;;;;;;6198824;23;20394;-84
2022/02/09 20:06:34;;;;;;;10.03;8.90;;;7.00;99.90;;;;;;6201937;23;20392;-86
2022/02/09 20:09:01;;;;;;;12.40;10.57;;;7.00;99.90;;;;;;6197985;23;20458;-85
2022/02/09 20:11:32;;;;;;;11.30;9.90;;;6.90;99.90;;;;;;6224720;23;20390;-85
2022/02/09 20:14:48;;;;;;;;;;;;;;;;;;;;;
2022/02/09 20:18:08;;;;;;;10.27;9.07;;;6.90;99.90;;;;;;6142922;23;20448;-87
2022/02/09 20:20:52;;;;;;;;;;;;;;;;;;;;;
2022/02/09 20:23:20;;;;;;;11.40;8.60;;;6.70;99.90;;;;;;6227347;23;20396;-84
2022/02/09 20:25:46;;;;;;;13.60;8.70;;;6.60;99.90;;;;;;6200643;23;20399;-84
2022/02/09 20:28:11;;;;;;;13.90;10.20;;;6.50;99.90;;;;;;6198808;23;20720;-86
2022/02/09 20:30:43;;;;;;;12.67;10.47;;;6.50;99.90;;;;;;6195817;23;20554;-85
2022/02/09 20:33:14;;;;;;;11.43;8.33;;;6.50;99.90;;;;;;6197860;23;20236;-84
2022/02/09 20:35:42;;;;;;;9.93;7.77;;;6.50;99.90;;;;;;6196987;23;20411;-84
2022/02/09 20:38:14;;;;;;;11.97;8.23;;;6.50;99.90;;;;;;6196754;23;20438;-84
2022/02/09 20:40:53;;;;;;;10.37;8.40;;;6.40;99.90;;;;;;6198068;23;20374;-85
2022/02/09 20:43:22;;;;;;;9.30;7.83;;;6.30;99.90;;;;;;6198763;23;20469;-84
2022/02/09 20:45:51;;;;;;;12.37;7.87;;;6.30;99.90;;;;;;6199805;23;20379;-84
2022/02/09 20:48:23;;;;;;;8.93;7.43;;;6.30;99.90;;;;;;6192112;23;20398;-84
2022/02/09 20:50:49;;;;;;;7.40;6.30;;;6.30;99.90;;;;;;6192939;23;20522;-85
2022/02/09 20:53:15;;;;;;;8.20;7.40;;;6.30;99.90;;;;;;6195846;23;20621;-85
2022/02/09 20:55:44;;;;;;;9.27;7.43;;;6.30;99.90;;;;;;6192833;23;20480;-83
2022/02/09 20:58:10;;;;;;;8.47;7.60;;;6.20;99.90;;;;;;6190061;23;20568;-84
2022/02/09 21:00:44;;;;;;;8.87;6.40;;;6.20;99.90;;;;;;6197136;23;20485;-84
2022/02/09 21:03:43;;;;;;;8.30;6.60;;;6.10;99.90;;;;;;6196394;23;20184;-83
2022/02/09 21:14:11;;;;;;;10.60;9.47;;;6.10;99.90;;;;;;6222342;23;21268;-84
2022/02/09 21:27:18;;;;;;;10.93;7.93;;;6.00;99.90;;;;;;6229385;23;20153;-85
2022/02/09 21:46:15;;;;;;;35.70;29.40;;;5.20;99.90;;;;;;6223148;23;20381;-85
2022/02/09 22:06:11;;;;;;;11.17;8.97;;;5.60;99.90;;;;;;6218340;23;20238;-84
2022/02/09 22:20:43;;;;;;;10.93;7.90;;;5.20;99.90;;;;;;6226084;23;20958;-84
2022/02/09 22:23:48;;;;;;;11.47;7.50;;;5.10;99.90;;;;;;6201986;23;20701;-83
2022/02/09 22:28:58;;;;;;;8.70;7.80;;;5.00;99.90;;;;;;6221299;23;20702;-84
2022/02/09 22:31:36;;;;;;;11.17;8.57;;;4.90;99.90;;;;;;6190492;23;20399;-84
2022/02/09 22:50:25;;;;;;;12.63;7.93;;;4.70;99.90;;;;;;6219247;23;20394;-83
2022/02/09 22:55:41;;;;;;;10.47;8.43;;;4.60;99.90;;;;;;6214797;23;20956;-82
2022/02/09 22:58:09;;;;;;;8.90;8.00;;;4.60;99.90;;;;;;6192007;23;20432;-82
2022/02/09 23:00:47;;;;;;;10.40;7.97;;;4.60;99.90;;;;;;6188361;23;20397;-82
2022/02/09 23:03:19;;;;;;;9.57;7.73;;;4.60;99.90;;;;;;6190504;23;20664;-82
2022/02/09 23:11:08;;;;;;;9.80;8.20;;;4.60;99.90;;;;;;6220736;23;20391;-83
2022/02/09 23:21:20;;;;;;;11.53;7.30;;;4.50;99.90;;;;;;6217495;23;20442;-83
2022/02/09 23:54:01;;;;;;;10.57;7.43;;;3.70;99.90;;;;;;6219080;23;20373;-83
